Time;durP1;ratioP1;P1;durP2;ratioP2;P2;SDS_P1;SDS_P2;PMS_P1;PMS_P2;Temp;Humidity;BMP_temperature;BMP_pressure;BME280_temperature;BME280_humidity;BME280_pressure;Samples;Min_cycle;Max_cycle;Signal;HPM_P1;HPM_P2
2022/01/28 00:00:13;;;;;;;13.95;2.58;;;;;;;2.46;100.00;102996.53;5034112;28;20384;-83
2022/01/28 00:05:16;;;;;;;15.25;3.03;;;;;;;2.39;100.00;103009.97;5034435;28;20065;-83
2022/01/28 00:07:42;;;;;;;15.35;3.67;;;;;;;2.35;100.00;103026.06;5034493;28;20045;-83
2022/01/28 00:10:07;;;;;;;17.67;2.50;;;;;;;2.27;100.00;103019.69;5034836;28;20469;-83
2022/01/28 00:12:34;;;;;;;15.48;2.80;;;;;;;2.21;100.00;103028.00;5042078;28;20030;-83
2022/01/28 00:15:08;;;;;;;15.05;3.05;;;;;;;2.17;100.00;103038.09;5034698;28;20052;-83
2022/01/28 00:20:57;;;;;;;24.17;2.58;;;;;;;1.99;100.00;103045.81;5054072;28;20037;-83
2022/01/28 00:39:24;;;;;;;14.13;2.15;;;;;;;1.65;100.00;103057.09;5034315;28;19917;-83
2022/01/28 00:41:50;;;;;;;11.45;2.03;;;;;;;1.61;100.00;103055.19;5035738;28;20080;-83
2022/01/28 00:44:15;;;;;;;14.63;2.55;;;;;;;1.55;100.00;103042.03;5054119;28;20041;-83
2022/01/28 00:46:40;;;;;;;12.07;2.35;;;;;;;1.51;100.00;103050.41;5053713;28;20070;-83
2022/01/28 00:49:05;;;;;;;11.18;2.97;;;;;;;1.53;100.00;103049.66;5053548;28;20029;-83
2022/01/28 00:51:31;;;;;;;12.05;2.60;;;;;;;1.52;100.00;103042.75;5053599;28;20036;-84
2022/01/28 00:53:56;;;;;;;20.67;3.00;;;;;;;1.52;100.00;103050.47;5038209;28;20040;-83
2022/01/28 00:56:21;;;;;;;15.70;2.97;;;;;;;1.51;100.00;103048.72;5051769;28;20025;-84
2022/01/28 00:58:48;;;;;;;20.55;3.50;;;;;;;1.56;100.00;103047.22;5053561;28;20483;-83
2022/01/28 01:01:13;;;;;;;12.85;3.42;;;;;;;1.59;100.00;103052.53;5053296;28;20021;-83
2022/01/28 01:03:38;;;;;;;21.92;2.97;;;;;;;1.59;100.00;103047.38;5050006;28;20029;-83
2022/01/28 01:06:04;;;;;;;18.75;3.15;;;;;;;1.60;100.00;103046.59;5053860;28;20041;-83
2022/01/28 01:08:29;;;;;;;21.42;2.92;;;;;;;1.62;100.00;103056.94;5033250;28;20025;-83
2022/01/28 01:10:54;;;;;;;18.00;3.00;;;;;;;1.58;100.00;103040.50;5033723;28;20033;-83
2022/01/28 01:13:20;;;;;;;16.15;2.60;;;;;;;1.63;100.00;103048.41;5047537;28;20025;-83
2022/01/28 01:15:49;;;;;;;27.30;3.45;;;;;;;1.68;100.00;103062.38;5052404;28;20025;-83
2022/01/28 01:18:21;;;;;;;11.98;2.42;;;;;;;1.67;100.00;103060.63;5053729;28;20056;-82
2022/01/28 01:23:24;;;;;;;21.17;3.00;;;;;;;1.80;100.00;103068.13;5049526;28;20396;-83
2022/01/28 01:25:59;;;;;;;13.15;2.47;;;;;;;1.82;100.00;103061.34;5053235;28;20029;-83
2022/01/28 01:28:30;;;;;;;21.67;2.55;;;;;;;1.76;100.00;103053.34;5053500;28;20104;-83
2022/01/28 01:30:57;;;;;;;13.65;2.33;;;;;;;1.83;100.00;103064.78;5052517;28;20021;-83
2022/01/28 01:33:22;;;;;;;21.77;2.97;;;;;;;1.84;100.00;103064.88;5049899;28;20028;-83
2022/01/28 01:35:48;;;;;;;14.85;2.42;;;;;;;1.91;100.00;103073.78;5052639;28;20445;-83
2022/01/28 01:38:13;;;;;;;25.50;2.97;;;;;;;1.91;100.00;103072.91;5052769;28;20033;-83
2022/01/28 01:40:51;;;;;;;19.35;3.22;;;;;;;1.88;100.00;103060.75;5052749;28;20388;-83
2022/01/28 01:43:48;;;;;;;16.23;3.25;;;;;;;1.92;100.00;103072.97;5040324;28;20025;-83
2022/01/28 01:53:59;;;;;;;10.13;3.08;;;;;;;1.92;100.00;103092.66;5038159;28;20639;-83
2022/01/28 01:56:25;;;;;;;13.60;2.45;;;;;;;1.94;100.00;103109.06;5032477;28;20428;-83
2022/01/28 01:58:50;;;;;;;14.27;3.60;;;;;;;1.89;100.00;103106.25;5051153;28;20029;-83
2022/01/28 02:01:16;;;;;;;18.40;2.50;;;;;;;1.89;100.00;103116.53;5052581;28;20456;-83
2022/01/28 02:03:42;;;;;;;18.75;3.20;;;;;;;1.95;100.00;103123.69;5048889;28;20017;-83
2022/01/28 02:06:07;;;;;;;15.38;2.40;;;;;;;1.93;100.00;103123.63;5051032;28;20490;-83
2022/01/28 02:08:34;;;;;;;20.20;2.70;;;;;;;1.92;100.00;103129.56;5052468;28;20111;-83
2022/01/28 02:11:00;;;;;;;17.17;3.28;;;;;;;1.84;100.00;103123.16;5052144;28;20057;-83
2022/01/28 02:13:27;;;;;;;12.63;2.20;;;;;;;1.88;100.00;103125.06;5040407;28;20480;-83
2022/01/28 02:15:53;;;;;;;16.65;2.83;;;;;;;1.94;100.00;103132.22;5036307;28;20048;-83
2022/01/28 02:18:20;;;;;;;17.23;2.50;;;;;;;1.93;100.00;103133.91;5032655;28;20045;-83
2022/01/28 02:20:48;;;;;;;21.45;2.78;;;;;;;2.00;100.00;103130.81;5031210;28;20091;-83
2022/01/28 02:23:14;;;;;;;18.17;2.60;;;;;;;2.04;100.00;103147.28;5042262;28;20071;-83
2022/01/28 02:25:39;;;;;;;12.77;3.03;;;;;;;2.03;100.00;103141.25;5033965;28;20037;-83
2022/01/28 02:28:07;;;;;;;19.15;2.78;;;;;;;2.04;100.00;103137.00;5032637;28;20529;-82
2022/01/28 02:30:33;;;;;;;19.08;3.25;;;;;;;2.03;100.00;103135.25;5032216;28;20033;-83
2022/01/28 02:33:11;;;;;;;17.77;3.10;;;;;;;2.07;100.00;103143.16;5032960;28;20465;-83
2022/01/28 02:35:38;;;;;;;18.13;2.28;;;;;;;2.09;100.00;103143.22;5032109;28;20504;-83
2022/01/28 02:38:03;;;;;;;14.05;2.15;;;;;;;2.06;100.00;103154.28;5032331;28;20060;-83
2022/01/28 02:40:28;;;;;;;18.48;2.35;;;;;;;2.03;100.00;103150.69;5047008;28;20068;-83
2022/01/28 02:43:13;;;;;;;14.05;2.92;;;;;;;2.00;100.00;103140.22;5042189;28;20028;-83
2022/01/28 02:45:40;;;;;;;16.02;2.83;;;;;;;1.95;100.00;103134.84;5031668;28;20091;-83
2022/01/28 02:48:13;;;;;;;12.38;2.47;;;;;;;2.00;100.00;103143.69;5033062;28;20025;-83
2022/01/28 02:50:46;;;;;;;19.17;3.67;;;;;;;1.94;100.00;103145.94;5048130;28;20029;-83
2022/01/28 02:53:21;;;;;;;20.50;3.00;;;;;;;1.96;100.00;103157.22;5044619;28;20452;-83
2022/01/28 02:55:46;;;;;;;16.42;2.65;;;;;;;1.93;100.00;103158.72;5050963;28;20271;-83
2022/01/28 02:58:18;;;;;;;19.65;3.03;;;;;;;1.88;100.00;103169.69;5052055;28;20135;-83
2022/01/28 03:00:46;;;;;;;18.90;2.58;;;;;;;1.84;100.00;103165.19;5035638;28;20013;-83
2022/01/28 03:03:12;;;;;;;14.90;2.58;;;;;;;1.81;100.00;103174.47;5033944;28;20052;-83
2022/01/28 03:05:37;;;;;;;19.33;2.60;;;;;;;1.77;100.00;103169.97;5031799;28;20477;-83
2022/01/28 03:08:05;;;;;;;16.38;2.33;;;;;;;1.74;100.00;103178.41;5030885;28;20127;-83
2022/01/28 03:15:33;;;;;;;20.85;2.33;;;;;;;1.49;100.00;103178.84;5050741;28;19913;-83
2022/01/28 03:18:11;;;;;;;15.95;2.75;;;;;;;1.55;100.00;103186.88;5054281;28;20360;-83
2022/01/28 03:20:44;;;;;;;15.73;2.78;;;;;;;1.66;100.00;103192.56;5051965;28;20028;-82
2022/01/28 03:23:10;;;;;;;19.73;3.00;;;;;;;1.77;100.00;103185.41;5044374;28;20025;-83
2022/01/28 03:25:41;;;;;;;16.38;3.13;;;;;;;1.87;100.00;103191.06;5035399;28;20029;-84
2022/01/28 03:28:06;;;;;;;16.90;2.72;;;;;;;1.86;100.00;103181.59;5035712;28;20354;-82
2022/01/28 03:30:31;;;;;;;11.00;2.17;;;;;;;1.98;100.00;103193.28;5044570;28;20032;-83
2022/01/28 03:32:59;;;;;;;11.63;2.88;;;;;;;2.03;100.00;103190.16;5052051;28;20059;-83
2022/01/28 03:35:24;;;;;;;16.33;2.95;;;;;;;2.09;100.00;103180.16;5055395;28;20029;-83
2022/01/28 03:37:58;;;;;;;20.33;3.78;;;;;;;2.16;100.00;103189.06;5042943;28;20044;-83
2022/01/28 03:40:24;;;;;;;18.83;2.90;;;;;;;2.21;100.00;103178.97;5035517;28;20108;-83
2022/01/28 03:42:49;;;;;;;16.83;2.83;;;;;;;2.27;100.00;103179.28;5039417;28;20120;-83
2022/01/28 03:45:14;;;;;;;18.33;3.33;;;;;;;2.31;100.00;103191.47;5054458;28;20064;-82
2022/01/28 03:47:39;;;;;;;14.90;2.60;;;;;;;2.32;100.00;103188.06;5045084;28;20473;-83
2022/01/28 03:50:05;;;;;;;19.17;2.45;;;;;;;2.24;100.00;103184.28;5034687;28;20117;-83
2022/01/28 03:52:30;;;;;;;19.60;3.00;;;;;;;2.13;100.00;103186.34;5034868;28;20384;-83
2022/01/28 03:54:56;;;;;;;12.77;2.30;;;;;;;2.01;100.00;103189.19;5041649;28;20553;-83
2022/01/28 03:57:21;;;;;;;12.88;2.50;;;;;;;1.80;100.00;103185.56;5042099;28;20029;-83
2022/01/28 03:59:46;;;;;;;10.20;2.95;;;;;;;1.72;100.00;103197.13;5034574;28;20026;-83
2022/01/28 04:02:12;;;;;;;21.27;2.58;;;;;;;1.60;100.00;103203.44;5035206;28;20107;-83
2022/01/28 04:05:34;;;;;;;14.63;2.80;;;;;;;1.52;100.00;103208.97;5035057;28;20043;-83
2022/01/28 04:12:53;;;;;;;;;;;;;;;1.28;100.00;103216.31;5052932;28;20111;-82
2022/01/28 04:15:35;;;;;;;15.95;2.80;;;;;;;1.28;100.00;103206.91;5034987;28;20376;-83
2022/01/28 04:18:00;;;;;;;17.15;3.17;;;;;;;1.17;100.00;103210.59;5044489;28;20033;-83
2022/01/28 04:20:25;;;;;;;18.90;3.30;;;;;;;1.04;100.00;103209.03;5053655;28;20031;-83
2022/01/28 04:22:50;;;;;;;10.60;2.30;;;;;;;1.11;100.00;103218.88;5053296;28;20075;-83
2022/01/28 04:25:16;;;;;;;20.65;3.55;;;;;;;1.28;100.00;103224.03;5034026;28;20045;-83
2022/01/28 04:27:41;;;;;;;19.17;3.15;;;;;;;1.45;100.00;103217.19;5036509;28;20056;-83
2022/01/28 04:30:07;;;;;;;9.40;2.67;;;;;;;1.45;100.00;103215.50;5033757;28;20392;-83
2022/01/28 04:32:33;;;;;;;14.98;2.63;;;;;;;1.48;100.00;103217.34;5033427;28;20049;-83
2022/01/28 04:34:59;;;;;;;18.00;3.25;;;;;;;1.57;100.00;103226.41;5052494;28;20087;-83
2022/01/28 04:40:23;;;;;;;19.95;4.13;;;;;;;1.76;100.00;103235.94;4996651;28;20400;-83
2022/01/28 04:45:25;;;;;;;16.40;4.03;;;;;;;1.84;100.00;103233.78;5052842;28;20136;-84
2022/01/28 04:48:09;;;;;;;26.80;4.90;;;;;;;1.81;100.00;103223.31;5043897;28;20056;-83
2022/01/28 04:53:32;;;;;;;24.63;5.05;;;;;;;1.84;100.00;103236.34;5043155;28;20092;-83
2022/01/28 05:01:21;;;;;;;18.10;4.60;;;;;;;1.54;100.00;103236.53;5033028;28;20065;-83
2022/01/28 05:04:01;;;;;;;19.95;4.18;;;;;;;1.40;100.00;103235.81;5041452;28;20045;-84
2022/01/28 05:12:31;;;;;;;25.75;5.68;;;;;;;1.28;100.00;103257.44;5033587;28;20030;-83
2022/01/28 05:26:21;;;;;;;26.38;7.40;;;;;;;1.10;100.00;103270.16;5033363;28;20099;-83
2022/01/28 05:28:39;;;;;;;22.58;7.15;;;;;;;0.98;100.00;103270.41;5032405;28;20113;-83
2022/01/28 05:31:04;;;;;;;19.10;6.15;;;;;;;0.88;100.00;103278.38;5033492;28;20457;-83
2022/01/28 05:33:29;;;;;;;25.80;6.55;;;;;;;0.81;100.00;103269.44;5034853;28;20033;-83
2022/01/28 05:35:54;;;;;;;28.45;7.88;;;;;;;0.81;100.00;103273.69;5032460;28;20083;-83
2022/01/28 05:38:20;;;;;;;29.90;7.25;;;;;;;0.72;100.00;103280.88;5033366;28;20483;-83
2022/01/28 05:40:45;;;;;;;19.92;7.35;;;;;;;0.67;100.00;103288.34;5032673;28;20037;-83
2022/01/28 05:43:10;;;;;;;23.23;7.05;;;;;;;0.66;100.00;103291.72;5039624;28;20037;-83
2022/01/28 05:45:35;;;;;;;23.00;7.18;;;;;;;0.68;100.00;103290.09;5052576;28;20045;-83
2022/01/28 05:48:01;;;;;;;21.88;6.95;;;;;;;0.69;100.00;103297.03;5049607;28;20028;-82
2022/01/28 05:50:26;;;;;;;24.63;7.10;;;;;;;0.60;100.00;103302.50;5051909;28;20029;-83
2022/01/28 05:52:51;;;;;;;25.67;6.15;;;;;;;0.53;100.00;103309.78;5047781;28;20104;-83
2022/01/28 05:55:17;;;;;;;23.27;6.93;;;;;;;0.50;100.00;103300.22;5033064;28;20083;-83
2022/01/28 05:57:42;;;;;;;21.33;5.93;;;;;;;0.45;100.00;103307.63;5031621;28;20362;-83
2022/01/28 06:00:08;;;;;;;20.02;6.13;;;;;;;0.35;100.00;103305.34;5032778;28;20036;-82
2022/01/28 06:02:33;;;;;;;34.58;6.53;;;;;;;0.39;100.00;103308.97;5041840;28;20021;-83
2022/01/28 06:04:58;;;;;;;27.67;6.43;;;;;;;0.32;100.00;103314.56;5031820;28;20389;-83
2022/01/28 06:07:24;;;;;;;19.92;6.13;;;;;;;0.24;100.00;103332.06;5042492;28;20039;-83
2022/01/28 06:09:49;;;;;;;22.60;6.47;;;;;;;0.19;100.00;103336.91;5052252;28;20020;-83
2022/01/28 06:12:15;;;;;;;23.35;6.15;;;;;;;0.18;100.00;103341.97;5041380;28;20076;-83
2022/01/28 06:14:40;;;;;;;23.27;6.65;;;;;;;0.13;100.00;103341.72;5049433;28;20105;-83
2022/01/28 06:17:05;;;;;;;18.30;6.13;;;;;;;0.13;100.00;103340.81;5048830;28;20460;-83
2022/01/28 06:19:30;;;;;;;21.23;5.68;;;;;;;0.08;100.00;103344.78;5051496;28;20052;-83
2022/01/28 06:21:56;;;;;;;17.45;6.40;;;;;;;0.04;100.00;103343.72;5050396;28;20452;-83
2022/01/28 06:24:21;;;;;;;20.75;5.88;;;;;;;-0.02;100.00;103343.34;5052421;28;20071;-83
2022/01/28 06:26:47;;;;;;;29.48;6.13;;;;;;;-0.06;100.00;103349.09;5048336;28;20033;-83
2022/01/28 06:29:13;;;;;;;26.10;6.13;;;;;;;-0.06;100.00;103354.22;5032333;28;20021;-83
2022/01/28 06:31:38;;;;;;;17.45;6.05;;;;;;;-0.10;100.00;103355.72;5040773;28;20515;-83
2022/01/28 06:34:04;;;;;;;22.15;6.03;;;;;;;-0.17;100.00;103351.00;5051641;28;20032;-83
2022/01/28 06:36:29;;;;;;;17.40;5.95;;;;;;;-0.25;100.00;103360.78;5051660;28;20112;-83
2022/01/28 06:38:54;;;;;;;18.52;6.13;;;;;;;-0.22;100.00;103366.91;5031473;28;20428;-83
2022/01/28 06:41:20;;;;;;;19.38;6.03;;;;;;;-0.27;100.00;103364.94;5036676;28;20384;-83
2022/01/28 06:43:45;;;;;;;16.38;6.60;;;;;;;-0.30;100.00;103363.88;5051250;28;20072;-83
2022/01/28 06:46:10;;;;;;;19.65;6.55;;;;;;;-0.29;100.00;103378.47;5051472;28;20033;-83
2022/01/28 06:48:35;;;;;;;23.92;6.80;;;;;;;-0.34;100.00;103382.41;5036474;28;20029;-82
2022/01/28 06:51:01;;;;;;;23.08;6.40;;;;;;;-0.46;100.00;103367.16;5036067;28;20037;-83
2022/01/28 06:53:26;;;;;;;24.65;7.05;;;;;;;-0.40;100.00;103392.28;5049066;28;20158;-83
2022/01/28 06:55:52;;;;;;;21.17;6.25;;;;;;;-0.45;100.00;103389.44;5051556;28;20468;-83
2022/01/28 06:58:17;;;;;;;20.67;6.45;;;;;;;-0.45;100.00;103407.41;5052013;28;20029;-83
2022/01/28 07:00:42;;;;;;;22.00;6.57;;;;;;;-0.48;100.00;103399.50;5050743;28;20025;-83
2022/01/28 07:03:10;;;;;;;20.20;6.18;;;;;;;-0.45;100.00;103411.63;5052000;28;20076;-83
2022/01/28 07:05:36;;;;;;;28.00;7.82;;;;;;;-0.52;100.00;103406.13;5048096;28;20040;-83
2022/01/28 07:08:02;;;;;;;18.73;6.75;;;;;;;-0.47;100.00;103426.91;5051001;28;20083;-83
2022/01/28 07:10:27;;;;;;;20.75;7.03;;;;;;;-0.49;100.00;103431.06;5035973;28;20025;-82
2022/01/28 07:12:56;;;;;;;26.48;6.13;;;;;;;-0.54;100.00;103437.56;5039955;28;20029;-83
2022/01/28 07:15:25;;;;;;;20.65;6.15;;;;;;;-0.56;100.00;103447.69;5051214;28;20029;-83
2022/01/28 07:17:52;;;;;;;21.17;6.30;;;;;;;-0.55;100.00;103457.19;5051534;28;20111;-83
2022/01/28 07:20:18;;;;;;;21.08;6.30;;;;;;;-0.58;100.00;103444.16;5051853;28;20429;-83
2022/01/28 07:22:43;;;;;;;17.42;6.75;;;;;;;-0.58;100.00;103441.59;5050294;28;20020;-83
2022/01/28 07:25:09;;;;;;;22.33;6.75;;;;;;;-0.61;100.00;103443.09;5050575;28;20123;-83
2022/01/28 07:27:34;;;;;;;15.98;6.10;;;;;;;-0.62;100.00;103444.78;5051282;28;20025;-83
2022/01/28 07:30:00;;;;;;;25.67;6.20;;;;;;;-0.63;100.00;103440.41;5050765;28;20025;-82
2022/01/28 07:32:25;;;;;;;24.58;7.90;;;;;;;-0.60;100.00;103447.41;5051299;28;20047;-82
2022/01/28 07:34:50;;;;;;;21.77;6.90;;;;;;;-0.60;100.00;103449.97;5050784;28;20029;-83
2022/01/28 07:37:15;;;;;;;20.48;7.10;;;;;;;-0.65;100.00;103459.94;5050611;28;20025;-82
2022/01/28 07:39:41;;;;;;;18.67;7.22;;;;;;;-0.66;100.00;103463.28;5050750;28;20106;-83
2022/01/28 07:42:06;;;;;;;24.70;8.50;;;;;;;-0.67;100.00;103463.19;5050509;28;20182;-83
2022/01/28 07:44:32;;;;;;;20.27;7.97;;;;;;;-0.62;100.00;103472.03;5050703;28;20041;-83
2022/01/28 07:46:57;;;;;;;25.00;8.50;;;;;;;-0.66;100.00;103459.81;5051117;28;20953;-82
2022/01/28 07:49:22;;;;;;;17.90;7.75;;;;;;;-0.62;100.00;103461.78;5050858;28;20033;-83
2022/01/28 07:51:48;;;;;;;25.75;8.65;;;;;;;-0.64;100.00;103458.25;5049420;28;20021;-81
2022/01/28 07:54:14;;;;;;;23.73;7.80;;;;;;;-0.61;100.00;103469.59;5051496;28;20025;-83
2022/01/28 07:56:39;;;;;;;27.15;7.70;;;;;;;-0.62;100.00;103469.47;5050043;28;20111;-82
2022/01/28 07:59:05;;;;;;;26.73;8.35;;;;;;;-0.59;100.00;103474.81;5051564;28;20025;-83
2022/01/28 08:01:30;;;;;;;21.55;8.00;;;;;;;-0.56;100.00;103480.13;5050885;28;20129;-81
2022/01/28 08:03:55;;;;;;;22.83;8.20;;;;;;;-0.55;100.00;103481.91;5050024;28;20446;-83
2022/01/28 08:06:21;;;;;;;19.02;7.88;;;;;;;-0.55;100.00;103475.13;5054971;28;20025;-82
2022/01/28 08:08:46;;;;;;;24.75;9.05;;;;;;;-0.56;100.00;103475.88;5053992;28;20032;-82
2022/01/28 08:11:11;;;;;;;18.70;8.35;;;;;;;-0.53;100.00;103488.91;5053684;28;20017;-82
2022/01/28 08:13:37;;;;;;;31.45;10.32;;;;;;;-0.53;100.00;103491.44;5053750;28;20025;-81
2022/01/28 08:16:02;;;;;;;27.60;10.02;;;;;;;-0.45;100.00;103494.53;5051651;28;20112;-82
2022/01/28 08:18:28;;;;;;;26.25;10.18;;;;;;;-0.42;100.00;103497.28;5048997;28;20038;-82
2022/01/28 08:20:53;;;;;;;26.52;10.57;;;;;;;-0.41;100.00;103496.50;5044264;28;20021;-81
2022/01/28 08:23:19;;;;;;;22.30;9.80;;;;;;;-0.38;100.00;103500.94;5034988;28;20060;-81
2022/01/28 08:25:44;;;;;;;23.77;10.63;;;;;;;-0.34;100.00;103511.47;5049416;28;20033;-82
2022/01/28 08:28:10;;;;;;;26.13;9.65;;;;;;;-0.31;100.00;103516.78;5054782;28;20090;-82
2022/01/28 08:30:38;;;;;;;28.15;12.38;;;;;;;-0.21;100.00;103525.06;5046797;28;20083;-81
2022/01/28 08:33:04;;;;;;;28.40;11.43;;;;;;;-0.11;100.00;103519.72;5038749;28;20048;-81
2022/01/28 08:35:30;;;;;;;28.48;12.25;;;;;;;-0.08;100.00;103517.38;5053670;28;20033;-82
2022/01/28 08:37:57;;;;;;;31.05;12.32;;;;;;;-0.06;100.00;103515.81;5054194;28;20029;-82
2022/01/28 08:40:24;;;;;;;27.70;12.90;;;;;;;-0.02;100.00;103520.31;5053533;28;20040;-82
2022/01/28 08:42:49;;;;;;;37.55;15.07;;;;;;;0.11;100.00;103535.69;5049303;28;20087;-82
2022/01/28 08:45:14;;;;;;;37.38;15.30;;;;;;;0.19;100.00;103533.59;5042357;28;20089;-82
2022/01/28 08:47:40;;;;;;;42.85;15.25;;;;;;;0.25;100.00;103528.84;5046812;28;20026;-82
2022/01/28 08:50:06;;;;;;;44.00;17.35;;;;;;;0.37;100.00;103528.72;5037004;28;20029;-82
2022/01/28 08:52:32;;;;;;;36.20;16.17;;;;;;;0.44;100.00;103533.44;5039577;28;20032;-82
2022/01/28 08:54:57;;;;;;;39.53;18.20;;;;;;;0.55;100.00;103537.50;5046634;28;20033;-82
2022/01/28 08:57:22;;;;;;;44.83;18.17;;;;;;;0.62;100.00;103526.84;5033903;28;20033;-82
2022/01/28 08:59:47;;;;;;;50.90;19.55;;;;;;;0.67;100.00;103524.53;5032753;28;20057;-83
2022/01/28 09:02:13;;;;;;;42.55;19.50;;;;;;;0.73;100.00;103524.91;5052646;28;20079;-82
2022/01/28 09:04:38;;;;;;;45.00;22.20;;;;;;;0.90;100.00;103531.06;5051688;28;20395;-83
2022/01/28 09:07:04;;;;;;;49.92;23.27;;;;;;;0.95;100.00;103524.53;5052839;28;20446;-83
2022/01/28 09:09:30;;;;;;;55.63;24.77;;;;;;;1.13;100.00;103522.13;5041329;28;20025;-83
2022/01/28 09:14:24;;;;;;;57.92;25.23;;;;;;;1.42;100.00;103526.38;5047544;28;20025;-82
2022/01/28 09:16:50;;;;;;;58.28;27.13;;;;;;;1.51;100.00;103531.16;5034391;28;20029;-82
2022/01/28 09:19:15;;;;;;;66.15;29.10;;;;;;;1.61;100.00;103529.19;5043912;28;20400;-82
2022/01/28 09:21:40;;;;;;;60.38;28.15;;;;;;;1.68;100.00;103524.38;5032320;28;20033;-82
2022/01/28 09:24:06;;;;;;;60.63;27.98;;;;;;;1.73;100.00;103520.38;5042061;28;20067;-82
2022/01/28 09:26:32;;;;;;;65.88;27.88;;;;;;;1.88;100.00;103531.53;5033036;28;20065;-82
2022/01/28 09:28:57;;;;;;;64.03;28.33;;;;;;;1.98;100.00;103528.66;5035451;28;20040;-82
2022/01/28 09:31:23;;;;;;;50.78;25.83;;;;;;;2.02;100.00;103530.56;5044504;28;20472;-82
2022/01/28 09:33:48;;;;;;;60.80;27.60;;;;;;;2.06;100.00;103527.41;5034127;28;20497;-83
2022/01/28 09:36:14;;;;;;;59.15;26.90;;;;;;;2.15;100.00;103542.44;5032529;28;20155;-83
2022/01/28 09:38:39;;;;;;;57.22;25.13;;;;;;;2.28;100.00;103541.41;5032778;28;20029;-83
2022/01/28 09:41:08;;;;;;;51.47;23.42;;;;;;;2.31;100.00;103539.00;5033146;28;20022;-82
2022/01/28 09:43:33;;;;;;;59.67;25.60;;;;;;;2.42;100.00;103537.91;5032658;28;20118;-83
2022/01/28 09:45:58;;;;;;;43.63;22.92;;;;;;;2.47;100.00;103531.28;5032974;28;20057;-82
2022/01/28 09:48:24;;;;;;;50.20;23.60;;;;;;;2.53;100.00;103531.59;5042507;28;20370;-83
2022/01/28 09:50:50;;;;;;;49.05;22.70;;;;;;;2.57;100.00;103535.22;5051490;28;20456;-83
2022/01/28 09:53:17;;;;;;;55.03;23.33;;;;;;;2.69;100.00;103540.16;5047874;28;20030;-82
2022/01/28 09:55:45;;;;;;;53.55;23.75;;;;;;;2.81;100.00;103554.56;5051786;28;20024;-82
2022/01/28 09:58:10;;;;;;;51.83;21.98;;;;;;;2.94;100.00;103550.91;5052963;28;20035;-83
2022/01/28 10:00:36;;;;;;;43.83;19.08;;;;;;;3.02;100.00;103552.19;5052569;28;20033;-82
2022/01/28 10:03:09;;;;;;;43.38;19.92;;;;;;;3.16;100.00;103559.72;5051879;28;20040;-80
2022/01/28 10:05:36;;;;;;;;;;;;;;;3.21;100.00;103553.13;5052807;28;20116;-83
2022/01/28 10:08:09;;;;;;;46.85;18.95;;;;;;;3.26;100.00;103547.38;5046619;28;20016;-82
2022/01/28 10:10:53;;;;;;;43.67;19.75;;;;;;;3.36;100.00;103543.53;5051816;28;20055;-82
2022/01/28 10:13:53;;;;;;;46.05;19.38;;;;;;;3.42;100.00;103549.00;5036172;28;20034;-81
2022/01/28 10:16:22;;;;;;;43.38;18.75;;;;;;;3.53;100.00;103544.38;5039988;28;20499;-82
2022/01/28 10:18:59;;;;;;;43.05;17.17;;;;;;;3.62;100.00;103549.09;5044743;28;20149;-81
2022/01/28 10:21:30;;;;;;;39.75;17.17;;;;;;;3.70;100.00;103547.78;5052318;28;20029;-83
2022/01/28 10:24:17;;;;;;;41.78;16.55;;;;;;;3.78;100.00;103546.44;5045876;28;20413;-82
2022/01/28 10:26:50;;;;;;;34.42;14.73;;;;;;;3.77;100.00;103534.38;5042276;28;20033;-82
2022/01/28 10:29:30;;;;;;;32.40;14.18;;;;;;;3.87;100.00;103544.31;5043624;28;20078;-82
2022/01/28 10:31:57;;;;;;;31.13;12.77;;;;;;;3.99;100.00;103549.19;5046171;28;20061;-82
2022/01/28 10:34:35;;;;;;;34.03;13.02;;;;;;;4.06;100.00;103546.06;5050591;28;20388;-82
2022/01/28 10:37:21;;;;;;;33.67;12.70;;;;;;;4.11;100.00;103560.03;5042129;28;20488;-82
2022/01/28 10:39:52;;;;;;;37.28;12.70;;;;;;;4.19;100.00;103568.19;5049878;28;20043;-82
2022/01/28 10:42:20;;;;;;;36.97;13.68;;;;;;;4.19;100.00;103558.72;5045328;28;20028;-82
2022/01/28 10:44:55;;;;;;;33.03;12.07;;;;;;;4.25;100.00;103557.22;5051328;28;20520;-82
2022/01/28 10:47:39;;;;;;;30.75;11.95;;;;;;;4.32;100.00;103559.28;5051947;28;20048;-82
2022/01/28 10:50:22;;;;;;;28.58;10.02;;;;;;;4.34;100.00;103548.19;5052304;28;20025;-82
2022/01/28 10:52:57;;;;;;;24.58;10.25;;;;;;;4.38;100.00;103550.13;5050681;28;20096;-83
2022/01/28 10:55:22;;;;;;;31.42;9.93;;;;;;;4.37;100.00;103538.00;5042034;28;20025;-82
2022/01/28 10:58:02;;;;;;;28.77;9.02;;;;;;;4.49;100.00;103553.19;5031475;28;20026;-82
2022/01/28 11:00:32;;;;;;;19.30;7.97;;;;;;;4.50;100.00;103530.81;5032214;28;20079;-83
2022/01/28 11:03:00;;;;;;;21.40;7.45;;;;;;;4.58;100.00;103532.06;5036137;28;20638;-83
2022/01/28 11:05:29;;;;;;;24.27;7.30;;;;;;;4.61;100.00;103532.16;5037100;28;20032;-81
2022/01/28 11:07:54;;;;;;;27.40;6.32;;;;;;;4.72;100.00;103525.78;5042556;28;20025;-83
2022/01/28 11:10:20;;;;;;;20.88;5.75;;;;;;;4.77;100.00;103533.72;5037035;28;20372;-82
2022/01/28 11:12:45;;;;;;;24.17;6.63;;;;;;;4.82;100.00;103540.88;5031170;28;20469;-82
2022/01/28 11:15:12;;;;;;;20.98;4.78;;;;;;;4.82;100.00;103522.78;5031030;28;20140;-82
2022/01/28 11:17:37;;;;;;;23.13;5.80;;;;;;;4.96;100.00;103522.47;5032738;28;20112;-82
2022/01/28 11:20:05;;;;;;;14.40;5.15;;;;;;;4.97;100.00;103517.38;5042599;28;20105;-82
2022/01/28 11:23:04;;;;;;;23.70;5.47;;;;;;;5.05;100.00;103515.13;5031126;28;20051;-82
2022/01/28 11:25:54;;;;;;;20.23;6.03;;;;;;;5.12;100.00;103509.38;5032568;28;20025;-82
2022/01/28 11:28:19;;;;;;;15.02;5.32;;;;;;;5.17;100.00;103510.47;5034835;28;20535;-82
2022/01/28 11:30:50;;;;;;;12.93;3.95;;;;;;;5.16;100.00;103485.41;5042731;28;20024;-82
2022/01/28 11:33:16;;;;;;;16.67;4.38;;;;;;;5.09;100.00;103499.78;5043771;28;20382;-82
2022/01/28 11:36:00;;;;;;;14.50;3.17;;;;;;;5.11;100.00;103500.72;5039661;28;20025;-83
2022/01/28 11:38:26;;;;;;;;;;;;;;;5.13;100.00;103499.09;5042539;28;20037;-83
2022/01/28 11:41:09;;;;;;;11.38;3.78;;;;;;;5.22;100.00;103492.53;5046712;28;19921;-83
2022/01/28 11:43:48;;;;;;;14.95;3.10;;;;;;;5.37;99.79;103493.16;5034671;28;20071;-81
2022/01/28 11:46:24;;;;;;;17.23;3.90;;;;;;;5.41;100.00;103487.28;5036557;28;20064;-82
2022/01/28 11:48:52;;;;;;;14.20;3.55;;;;;;;5.44;98.97;103482.22;5035796;28;20384;-81
2022/01/28 11:51:20;;;;;;;10.70;3.60;;;;;;;5.40;100.00;103488.13;5044044;28;20106;-82
2022/01/28 11:53:57;;;;;;;16.15;4.30;;;;;;;5.40;100.00;103490.69;5039821;28;20120;-82
2022/01/28 11:56:24;;;;;;;14.77;4.72;;;;;;;5.33;99.28;103479.22;5048699;28;20025;-82
2022/01/28 11:59:14;;;;;;;13.20;3.80;;;;;;;5.35;99.11;103480.16;5043110;28;20390;-82
2022/01/28 12:01:39;;;;;;;10.05;3.20;;;;;;;5.34;98.42;103485.28;5040309;28;20033;-81
2022/01/28 12:04:27;;;;;;;14.85;3.40;;;;;;;5.28;98.51;103492.78;5048418;28;20095;-82
2022/01/28 12:06:58;;;;;;;13.15;3.33;;;;;;;5.21;97.56;103485.59;5040039;28;20476;-82
2022/01/28 12:09:23;;;;;;;12.45;2.97;;;;;;;5.10;97.49;103486.06;5034255;28;20469;-82
2022/01/28 12:11:49;;;;;;;9.48;2.70;;;;;;;5.14;97.35;103487.94;5035424;28;20036;-82
2022/01/28 12:14:14;;;;;;;11.57;3.25;;;;;;;5.10;97.47;103488.63;5041768;28;20048;-82
2022/01/28 12:16:43;;;;;;;11.05;3.35;;;;;;;5.21;98.66;103486.47;5052086;28;20052;-82
2022/01/28 12:19:22;;;;;;;10.38;3.28;;;;;;;5.40;99.29;103478.66;5039029;28;20080;-82
2022/01/28 12:22:10;;;;;;;13.40;3.10;;;;;;;5.56;100.00;103480.13;5039622;28;20025;-82
2022/01/28 12:24:37;;;;;;;10.55;3.30;;;;;;;5.85;96.12;103463.16;5051148;28;20021;-82
2022/01/28 12:27:04;;;;;;;14.77;4.63;;;;;;;6.33;95.82;103445.06;5045473;28;20063;-83
2022/01/28 12:29:31;;;;;;;13.98;5.38;;;;;;;6.77;92.63;103442.28;5040475;28;20021;-81
2022/01/28 12:31:59;;;;;;;12.80;4.13;;;;;;;6.97;90.08;103442.94;5035679;28;20035;-81
2022/01/28 12:34:25;;;;;;;12.80;5.47;;;;;;;7.16;89.56;103436.59;5052060;28;20071;-81